Time;durP1;ratioP1;P1;durP2;ratioP2;P2;SDS_P1;SDS_P2;PMS_P1;PMS_P2;Temp;Humidity;BMP_temperature;BMP_pressure;BME280_temperature;BME280_humidity;BME280_pressure;Samples;Min_cycle;Max_cycle;Signal;HPM_P1;HPM_P2
2022/06/16 00:00:48;;;;;;;;;;;;;;;18.31;52.53;101800.84;5064130;28;19963;-61
2022/06/16 00:03:14;;;;;;;;;;;;;;;18.25;52.76;101801.59;5065063;28;20473;-63
2022/06/16 00:05:43;;;;;;;;;;;;;;;18.21;53.39;101803.00;5063846;28;20336;-61
2022/06/16 00:08:09;;;;;;;;;;;;;;;18.22;52.91;101796.63;5061524;28;20741;-61
2022/06/16 00:10:34;;;;;;;;;;;;;;;18.23;52.76;101799.13;5063971;28;19932;-61
2022/06/16 00:13:00;;;;;;;;;;;;;;;18.26;52.52;101803.28;5064484;28;19928;-62
2022/06/16 00:15:27;;;;;;;;;;;;;;;18.13;52.79;101794.06;5062586;28;19931;-63
2022/06/16 00:17:53;;;;;;;;;;;;;;;18.11;52.94;101800.63;5064974;28;20362;-62
2022/06/16 00:20:18;;;;;;;;;;;;;;;18.12;53.10;101797.72;5062572;28;19970;-63
2022/06/16 00:22:43;;;;;;;;;;;;;;;18.10;53.01;101799.78;5065762;28;20011;-62
2022/06/16 00:25:09;;;;;;;;;;;;;;;18.15;52.81;101813.47;5061682;28;19935;-63
2022/06/16 00:27:35;;;;;;;;;;;;;;;18.06;52.83;101803.03;5062419;28;19959;-62
2022/06/16 00:30:00;;;;;;;;;;;;;;;17.96;54.10;101809.50;5064285;28;19994;-61
2022/06/16 00:32:26;;;;;;;;;;;;;;;17.93;52.96;101809.03;5064428;28;19925;-62
2022/06/16 00:34:51;;;;;;;;;;;;;;;17.92;53.08;101802.84;5062480;28;20019;-63
2022/06/16 00:37:16;;;;;;;;;;;;;;;17.93;53.16;101800.97;5061658;28;20024;-61
2022/06/16 00:39:41;;;;;;;;;;;;;;;17.89;53.12;101803.22;5062709;28;20374;-61
2022/06/16 00:42:08;;;;;;;;;;;;;;;17.80;53.35;101804.34;5058969;28;19929;-62
2022/06/16 00:44:33;;;;;;;;;;;;;;;17.80;53.08;101815.06;5060062;28;19924;-62
2022/06/16 00:46:58;;;;;;;;;;;;;;;17.92;52.66;101815.41;5062847;28;19940;-61
2022/06/16 00:49:24;;;;;;;;;;;;;;;17.67;53.10;101815.72;5062740;28;19924;-61
2022/06/16 00:51:52;;;;;;;;;;;;;;;17.73;52.88;101814.97;5061296;28;19934;-61
2022/06/16 00:54:24;;;;;;;;;;;;;;;17.73;52.88;101815.78;5061725;28;20120;-61
2022/06/16 00:56:51;;;;;;;;;;;;;;;17.55;53.16;101818.00;5060744;28;19924;-62
2022/06/16 00:59:16;;;;;;;;;;;;;;;17.57;53.27;101821.34;5060146;28;19928;-61
2022/06/16 01:01:43;;;;;;;;;;;;;;;17.52;53.13;101821.88;5059067;28;19935;-61
2022/06/16 01:06:53;;;;;;;;;;;;;;;17.43;53.40;101831.06;5063458;28;20755;-61
2022/06/16 01:09:19;;;;;;;;;;;;;;;17.50;53.42;101825.81;5063432;28;19924;-61
2022/06/16 01:14:41;;;;;;;;;;;;;;;17.39;53.29;101830.59;5059616;28;19931;-61
2022/06/16 01:17:26;;;;;;;;;;;;;;;17.28;53.95;101822.97;5062950;28;20469;-60
2022/06/16 01:20:04;;;;;;;;;;;;;;;17.17;53.77;101837.66;5005486;28;19936;-61
2022/06/16 01:22:43;;;;;;;;;;;;;;;17.19;53.77;101835.63;5047238;28;19936;-60
2022/06/16 01:25:26;;;;;;;;;;;;;;;17.17;53.80;101838.47;5055104;28;20024;-60
2022/06/16 01:28:09;;;;;;;;;;;;;;;17.26;53.36;101841.91;5062022;28;19936;-60
2022/06/16 01:30:56;;;;;;;;;;;;;;;17.13;53.66;101847.06;5058874;28;19931;-60
2022/06/16 01:33:36;;;;;;;;;;;;;;;17.07;54.34;101853.97;5053642;28;19924;-60
2022/06/16 01:36:02;;;;;;;;;;;;;;;16.95;54.32;101861.56;5062106;28;19930;-61
2022/06/16 01:38:33;;;;;;;;;;;;;;;16.89;54.25;101857.78;5062696;28;19938;-62
2022/06/16 01:41:17;;;;;;;;;;;;;;;16.91;54.36;101861.09;5062256;28;20720;-62
2022/06/16 01:43:45;;;;;;;;;;;;;;;16.93;54.58;101856.38;5060435;28;19994;-61
2022/06/16 01:46:26;;;;;;;;;;;;;;;16.95;54.18;101853.53;5073203;28;20358;-61
2022/06/16 01:48:55;;;;;;;;;;;;;;;16.94;54.62;101849.19;5062597;28;19924;-61
2022/06/16 01:51:42;;;;;;;;;;;;;;;16.91;54.18;101853.06;5058182;28;19928;-63
2022/06/16 01:54:12;;;;;;;;;;;;;;;16.88;54.26;101855.28;5059838;28;19935;-62
2022/06/16 01:56:41;;;;;;;;;;;;;;;16.87;54.21;101856.28;5061593;28;19935;-62
2022/06/16 01:59:20;;;;;;;;;;;;;;;16.84;54.55;101860.16;5061246;28;20022;-61
2022/06/16 02:01:47;;;;;;;;;;;;;;;16.79;54.49;101852.63;5060446;28;19928;-62
2022/06/16 02:04:21;;;;;;;;;;;;;;;16.78;54.28;101861.69;5058060;28;19924;-63
2022/06/16 02:06:50;;;;;;;;;;;;;;;16.76;54.47;101857.53;5057701;28;19932;-62
2022/06/16 02:09:19;;;;;;;;;;;;;;;16.68;54.80;101855.75;5063750;28;19947;-61
2022/06/16 02:11:46;;;;;;;;;;;;;;;16.66;54.63;101852.41;5063166;28;19928;-63
2022/06/16 02:14:18;;;;;;;;;;;;;;;16.64;55.05;101849.06;5060978;28;19928;-62
2022/06/16 02:16:44;;;;;;;;;;;;;;;16.60;54.46;101847.75;5061445;28;19924;-63
2022/06/16 02:19:12;;;;;;;;;;;;;;;16.61;54.86;101844.06;5064180;28;19929;-63
2022/06/16 02:21:49;;;;;;;;;;;;;;;16.58;55.33;101850.59;5064717;28;19935;-62
2022/06/16 02:24:25;;;;;;;;;;;;;;;16.53;54.92;101853.81;5063825;28;20005;-62
2022/06/16 02:26:52;;;;;;;;;;;;;;;16.44;55.39;101859.41;5061979;28;19924;-62
2022/06/16 02:29:29;;;;;;;;;;;;;;;16.34;55.84;101863.09;5063087;28;19924;-63
2022/06/16 02:32:07;;;;;;;;;;;;;;;16.24;55.70;101860.66;5060867;28;19924;-63
2022/06/16 02:34:32;;;;;;;;;;;;;;;16.18;55.62;101871.22;5064099;28;19978;-63
2022/06/16 02:37:03;;;;;;;;;;;;;;;16.09;55.78;101881.13;5066375;28;19955;-62
2022/06/16 02:39:58;;;;;;;;;;;;;;;16.09;55.84;101895.31;5066294;28;20532;-61
2022/06/16 02:42:23;;;;;;;;;;;;;;;16.12;56.06;101894.16;5042869;28;19920;-62
2022/06/16 02:45:00;;;;;;;;;;;;;;;16.10;55.71;101891.63;5059064;28;19937;-62
2022/06/16 02:47:45;;;;;;;;;;;;;;;16.06;56.05;101897.50;5062066;28;20015;-62
2022/06/16 02:50:16;;;;;;;;;;;;;;;16.06;56.17;101910.91;5060715;28;19974;-61
2022/06/16 02:52:47;;;;;;;;;;;;;;;16.02;55.97;101913.06;5058809;28;19929;-62
2022/06/16 02:55:18;;;;;;;;;;;;;;;15.96;56.78;101909.25;5066299;28;19928;-61
2022/06/16 02:57:47;;;;;;;;;;;;;;;15.92;56.29;101910.59;5062036;28;19925;-63
2022/06/16 03:00:34;;;;;;;;;;;;;;;15.92;56.53;101907.94;5063765;28;19985;-61
2022/06/16 03:03:14;;;;;;;;;;;;;;;15.93;56.55;101909.59;5057595;28;19958;-61
2022/06/16 03:05:39;;;;;;;;;;;;;;;15.85;56.62;101914.94;5064213;28;19938;-62
2022/06/16 03:08:04;;;;;;;;;;;;;;;15.80;56.79;101906.59;5064993;28;19928;-62
2022/06/16 03:13:13;;;;;;;;;;;;;;;15.68;56.90;101903.41;5058452;28;19983;-61
2022/06/16 03:15:39;;;;;;;;;;;;;;;15.65;57.55;101898.41;5062238;28;19986;-61
2022/06/16 03:18:04;;;;;;;;;;;;;;;15.62;57.72;101904.94;5064834;28;20521;-61
2022/06/16 03:20:29;;;;;;;;;;;;;;;15.54;58.40;101899.63;5059413;28;19924;-61
2022/06/16 03:22:54;;;;;;;;;;;;;;;15.49;57.93;101901.94;5062827;28;19929;-62
2022/06/16 03:25:19;;;;;;;;;;;;;;;15.45;59.00;101902.28;5063699;28;20015;-61
2022/06/16 03:27:45;;;;;;;;;;;;;;;15.40;57.66;101901.94;5057039;28;19936;-61
2022/06/16 03:30:10;;;;;;;;;;;;;;;15.38;57.66;101901.28;5064313;28;19932;-61
2022/06/16 03:32:35;;;;;;;;;;;;;;;15.37;58.81;101904.97;5060785;28;19943;-63
2022/06/16 03:35:01;;;;;;;;;;;;;;;15.36;58.16;101899.78;5060271;28;20683;-61
2022/06/16 03:37:26;;;;;;;;;;;;;;;15.37;57.75;101902.28;5060988;28;19925;-61
2022/06/16 03:39:51;;;;;;;;;;;;;;;15.31;58.30;101919.00;5059084;28;20278;-63
2022/06/16 03:42:16;;;;;;;;;;;;;;;15.29;58.48;101915.66;5059105;28;19928;-62
2022/06/16 03:44:42;;;;;;;;;;;;;;;15.30;58.33;101922.66;5059731;28;19935;-62
2022/06/16 03:47:08;;;;;;;;;;;;;;;15.33;58.21;101923.16;5061961;28;20073;-61
2022/06/16 03:49:33;;;;;;;;;;;;;;;15.25;59.83;101935.69;5059989;28;20362;-60
2022/06/16 03:51:58;;;;;;;;;;;;;;;15.15;58.79;101936.66;5062317;28;19936;-61
2022/06/16 03:54:23;;;;;;;;;;;;;;;15.09;59.18;101937.31;5058841;28;19924;-62
2022/06/16 03:56:49;;;;;;;;;;;;;;;15.09;59.17;101942.66;5045738;28;20382;-62
2022/06/16 03:59:14;;;;;;;;;;;;;;;15.11;58.81;101946.03;5063417;28;19924;-61
2022/06/16 04:01:39;;;;;;;;;;;;;;;15.12;58.85;101947.69;5056252;28;19929;-62
2022/06/16 04:04:05;;;;;;;;;;;;;;;15.15;58.92;101958.03;5061694;28;20954;-62
2022/06/16 04:06:34;;;;;;;;;;;;;;;15.11;58.75;101951.38;5045013;28;20011;-61
2022/06/16 04:09:00;;;;;;;;;;;;;;;15.13;59.13;101956.53;5056263;28;19935;-61
2022/06/16 04:11:29;;;;;;;;;;;;;;;15.14;59.25;101960.91;5059872;28;19924;-62
2022/06/16 04:13:55;;;;;;;;;;;;;;;15.12;59.42;101958.38;5060733;28;19924;-61
2022/06/16 04:16:21;;;;;;;;;;;;;;;15.09;59.39;101966.72;5061933;28;19925;-61
2022/06/16 04:18:46;;;;;;;;;;;;;;;15.07;59.19;101961.53;5062441;28;19931;-60
2022/06/16 04:21:11;;;;;;;;;;;;;;;15.00;59.27;101954.34;5060567;28;19924;-61
2022/06/16 04:23:37;;;;;;;;;;;;;;;14.93;59.46;101957.69;5060824;28;19924;-61
2022/06/16 04:26:03;;;;;;;;;;;;;;;14.97;59.13;101960.84;5063897;28;19925;-61
2022/06/16 04:28:28;;;;;;;;;;;;;;;14.99;59.00;101960.69;5061153;28;20290;-63
2022/06/16 04:30:53;;;;;;;;;;;;;;;15.04;58.86;101966.34;5059222;28;19947;-60
2022/06/16 04:33:19;;;;;;;;;;;;;;;15.20;59.21;101966.41;5065593;28;19928;-62
2022/06/16 04:35:44;;;;;;;;;;;;;;;15.07;59.24;101976.72;5060744;28;20378;-62
2022/06/16 04:38:09;;;;;;;;;;;;;;;15.04;59.34;101971.69;5061285;28;19951;-62
2022/06/16 04:40:35;;;;;;;;;;;;;;;15.09;59.21;101980.06;5057654;28;19924;-61
2022/06/16 04:43:00;;;;;;;;;;;;;;;15.13;58.97;101988.59;5055897;28;19935;-62
2022/06/16 04:45:25;;;;;;;;;;;;;;;15.07;58.98;101988.25;5052808;28;20001;-62
2022/06/16 04:47:50;;;;;;;;;;;;;;;15.09;59.30;101996.09;5058416;28;19939;-61
2022/06/16 04:50:18;;;;;;;;;;;;;;;15.14;58.91;101985.75;5060357;28;20551;-61
2022/06/16 04:52:47;;;;;;;;;;;;;;;15.08;59.36;101999.78;5062976;28;19989;-61
2022/06/16 04:55:13;;;;;;;;;;;;;;;15.10;59.73;101997.75;5059600;28;19955;-61
2022/06/16 04:57:38;;;;;;;;;;;;;;;15.11;59.19;101999.47;5058955;28;20302;-61
2022/06/16 05:00:04;;;;;;;;;;;;;;;15.13;58.83;102001.94;5062383;28;20398;-62
2022/06/16 05:02:29;;;;;;;;;;;;;;;15.12;59.92;102006.47;5060443;28;20515;-62
2022/06/16 05:04:55;;;;;;;;;;;;;;;15.14;59.46;102008.97;5059350;28;19931;-61
2022/06/16 05:07:20;;;;;;;;;;;;;;;15.18;59.44;102011.16;5039621;28;20363;-61
2022/06/16 05:09:45;;;;;;;;;;;;;;;15.16;59.18;102006.97;5058645;28;19981;-62
2022/06/16 05:12:10;;;;;;;;;;;;;;;15.17;59.24;102016.66;5060824;28;19921;-61
2022/06/16 05:14:35;;;;;;;;;;;;;;;15.17;59.45;102014.84;5061355;28;20319;-63
2022/06/16 05:17:01;;;;;;;;;;;;;;;15.26;58.80;102018.38;5059181;28;20006;-62
2022/06/16 05:19:30;;;;;;;;;;;;;;;15.40;58.88;102019.53;5057749;28;20302;-62
2022/06/16 05:21:55;;;;;;;;;;;;;;;15.35;59.34;102035.25;5057949;28;19929;-61
2022/06/16 05:24:21;;;;;;;;;;;;;;;15.43;58.61;102029.91;5055803;28;20019;-61
2022/06/16 05:26:46;;;;;;;;;;;;;;;15.47;58.96;102030.41;5050024;28;20379;-61
2022/06/16 05:29:11;;;;;;;;;;;;;;;15.57;58.74;102030.25;5057910;28;20401;-62
2022/06/16 05:31:39;;;;;;;;;;;;;;;15.46;59.46;102034.91;5058363;28;20646;-59
2022/06/16 05:34:04;;;;;;;;;;;;;;;15.48;59.51;102036.59;5063305;28;19924;-62
2022/06/16 05:36:29;;;;;;;;;;;;;;;15.54;59.55;102043.97;5061869;28;19928;-62
2022/06/16 05:38:54;;;;;;;;;;;;;;;15.52;59.85;102043.28;5063422;28;20279;-63
2022/06/16 05:41:20;;;;;;;;;;;;;;;15.64;58.83;102041.13;5059884;28;19924;-60
2022/06/16 05:43:45;;;;;;;;;;;;;;;15.68;58.65;102048.66;5058597;28;20024;-61
2022/06/16 05:46:16;;;;;;;;;;;;;;;15.66;58.33;102055.16;5064853;28;19970;-61
2022/06/16 05:48:42;;;;;;;;;;;;;;;15.74;58.15;102064.03;5059336;28;19928;-62
2022/06/16 05:51:08;;;;;;;;;;;;;;;15.88;57.94;102064.38;5057821;28;20278;-62
2022/06/16 05:53:34;;;;;;;;;;;;;;;15.98;58.16;102064.22;5057904;28;19959;-60
2022/06/16 05:55:59;;;;;;;;;;;;;;;16.09;56.46;102057.72;5057829;28;20683;-60
2022/06/16 05:58:24;;;;;;;;;;;;;;;16.13;56.14;102059.88;5055909;28;20406;-63
2022/06/16 06:00:50;;;;;;;;;;;;;;;16.18;56.89;102062.03;5054959;28;20283;-63
2022/06/16 06:03:15;;;;;;;;;;;;;;;16.31;55.92;102069.56;5056494;28;19928;-63
2022/06/16 06:05:40;;;;;;;;;;;;;;;16.50;54.14;102070.19;5055613;28;20263;-63
2022/06/16 06:16:26;;;;;;;;;;;;;;;16.71;54.44;102075.00;5061695;28;20324;-62
2022/06/16 06:18:58;;;;;;;;;;;;;;;16.85;53.46;102080.63;5067203;28;19924;-61
2022/06/16 06:24:09;;;;;;;;;;;;;;;17.00;52.57;102078.91;5065884;28;19981;-62
2022/06/16 06:26:34;;;;;;;;;;;;;;;17.05;52.62;102076.59;5063677;28;19959;-63
2022/06/16 06:29:00;;;;;;;;;;;;;;;17.13;52.78;102080.22;5064467;28;19972;-63
2022/06/16 06:31:25;;;;;;;;;;;;;;;17.23;52.56;102078.19;5065582;28;20015;-62
2022/06/16 06:33:50;;;;;;;;;;;;;;;17.41;51.85;102085.13;5067860;28;19924;-62
2022/06/16 06:36:16;;;;;;;;;;;;;;;17.41;51.02;102082.44;5064060;28;19943;-64
2022/06/16 06:38:41;;;;;;;;;;;;;;;17.42;51.43;102086.78;5063227;28;20358;-63
2022/06/16 06:41:07;;;;;;;;;;;;;;;17.51;51.24;102084.88;5050389;28;19949;-64
2022/06/16 06:43:32;;;;;;;;;;;;;;;17.58;51.16;102091.22;5063055;28;20536;-62
2022/06/16 06:45:57;;;;;;;;;;;;;;;17.65;49.31;102091.34;5064545;28;20671;-63
2022/06/16 06:48:22;;;;;;;;;;;;;;;17.79;50.21;102082.50;5063911;28;19986;-62
2022/06/16 06:50:47;;;;;;;;;;;;;;;17.75;50.39;102091.91;5066523;28;19924;-61
2022/06/16 06:53:14;;;;;;;;;;;;;;;17.83;49.65;102091.88;5063664;28;20371;-63
2022/06/16 06:55:41;;;;;;;;;;;;;;;17.85;49.59;102092.53;5068271;28;20287;-62
2022/06/16 06:58:07;;;;;;;;;;;;;;;17.85;48.91;102092.53;5068305;28;19924;-63
2022/06/16 07:00:32;;;;;;;;;;;;;;;17.84;49.73;102096.22;5067606;28;19924;-62
2022/06/16 07:02:57;;;;;;;;;;;;;;;17.92;49.62;102108.75;5065921;28;19977;-62
2022/06/16 07:05:23;;;;;;;;;;;;;;;18.00;48.28;102105.13;5069874;28;19924;-63
2022/06/16 07:07:48;;;;;;;;;;;;;;;18.05;48.04;102113.50;5065106;28;19924;-63
2022/06/16 07:10:14;;;;;;;;;;;;;;;18.03;48.47;102110.16;5072174;28;20315;-63
2022/06/16 07:12:39;;;;;;;;;;;;;;;18.10;48.41;102116.50;5067627;28;20015;-63
2022/06/16 07:15:05;;;;;;;;;;;;;;;18.29;46.96;102122.38;5065468;28;19928;-60
2022/06/16 07:17:30;;;;;;;;;;;;;;;18.40;45.72;102126.47;5043291;28;19928;-63
2022/06/16 07:19:55;;;;;;;;;;;;;;;18.17;47.42;102134.56;5063091;28;20485;-61
2022/06/16 07:22:20;;;;;;;;;;;;;;;18.17;48.18;102134.56;5065015;28;19970;-62
2022/06/16 07:24:46;;;;;;;;;;;;;;;18.26;47.25;102130.81;5065354;28;19928;-62
2022/06/16 07:27:11;;;;;;;;;;;;;;;18.31;48.36;102144.53;5065836;28;19929;-62
2022/06/16 07:29:37;;;;;;;;;;;;;;;18.39;47.97;102139.06;5061094;28;19928;-62
2022/06/16 07:32:04;;;;;;;;;;;;;;;18.47;48.40;102148.06;5061137;28;19924;-63
2022/06/16 07:34:29;;;;;;;;;;;;;;;18.55;49.00;102153.34;5062919;28;20353;-62
2022/06/16 07:36:54;;;;;;;;;;;;;;;18.62;47.26;102157.00;5063445;28;19924;-63
2022/06/16 07:39:20;;;;;;;;;;;;;;;18.63;48.35;102163.19;5065132;28;19935;-63
2022/06/16 07:41:45;;;;;;;;;;;;;;;18.66;48.19;102162.84;5056742;28;19925;-62
2022/06/16 07:44:12;;;;;;;;;;;;;;;18.72;47.59;102170.16;5053257;28;20007;-62
2022/06/16 07:46:38;;;;;;;;;;;;;;;18.68;48.13;102177.75;5064640;28;19943;-62
2022/06/16 07:49:04;;;;;;;;;;;;;;;18.76;47.87;102173.31;5062329;28;20382;-61
2022/06/16 07:51:29;;;;;;;;;;;;;;;18.84;47.67;102175.91;5043790;28;20397;-62
2022/06/16 07:53:54;;;;;;;;;;;;;;;18.92;47.08;102165.09;5061378;28;19934;-62
2022/06/16 07:56:20;;;;;;;;;;;;;;;18.91;47.94;102171.44;5065390;28;19925;-63
2022/06/16 07:58:45;;;;;;;;;;;;;;;19.05;47.73;102177.06;5064498;28;19929;-61
2022/06/16 08:01:11;;;;;;;;;;;;;;;19.10;47.87;102182.72;5057997;28;20356;-62
2022/06/16 08:03:36;;;;;;;;;;;;;;;19.18;47.98;102179.94;5044787;28;20010;-61
2022/06/16 08:06:04;;;;;;;;;;;;;;;19.24;47.73;102180.22;5062680;28;19925;-63
2022/06/16 08:08:29;;;;;;;;;;;;;;;19.29;47.19;102184.00;5055254;28;20367;-62
2022/06/16 08:10:54;;;;;;;;;;;;;;;19.30;47.11;102184.84;5060628;28;20023;-61
2022/06/16 08:13:21;;;;;;;;;;;;;;;19.44;46.75;102192.03;5058700;28;19928;-61
2022/06/16 08:15:46;;;;;;;;;;;;;;;19.36;47.58;102194.84;5071993;28;19924;-62
2022/06/16 08:18:16;;;;;;;;;;;;;;;19.47;46.96;102191.69;5063024;28;20278;-61
2022/06/16 08:20:42;;;;;;;;;;;;;;;19.59;47.08;102193.91;5062701;28;21264;-61
2022/06/16 08:23:08;;;;;;;;;;;;;;;19.65;46.83;102193.13;5063125;28;19951;-63
2022/06/16 08:25:33;;;;;;;;;;;;;;;19.73;45.19;102194.84;5062766;28;20042;-61
2022/06/16 08:27:59;;;;;;;;;;;;;;;19.76;44.34;102189.94;5063416;28;19952;-60
2022/06/16 08:30:24;;;;;;;;;;;;;;;19.67;44.94;102191.06;5063368;28;19986;-62
2022/06/16 08:32:51;;;;;;;;;;;;;;;19.70;45.41;102185.34;5063909;28;21489;-61
2022/06/16 08:35:17;;;;;;;;;;;;;;;19.80;45.05;102184.19;5064006;28;19927;-59
2022/06/16 08:37:42;;;;;;;;;;;;;;;19.88;45.13;102170.59;5058841;28;20795;-62
2022/06/16 08:40:08;;;;;;;;;;;;;;;19.93;45.79;102176.22;5056124;28;19925;-59
2022/06/16 08:42:33;;;;;;;;;;;;;;;20.03;44.87;102179.47;5044828;28;20078;-59
2022/06/16 08:45:01;;;;;;;;;;;;;;;20.13;44.39;102183.72;5057611;28;19928;-62
2022/06/16 08:47:37;;;;;;;;;;;;;;;20.18;42.91;102181.25;5057088;28;19929;-60
2022/06/16 08:50:08;;;;;;;;;;;;;;;20.20;44.83;102184.59;5061657;28;19982;-63
2022/06/16 08:52:45;;;;;;;;;;;;;;;20.21;44.30;102185.44;5062613;28;19952;-60
2022/06/16 08:55:10;;;;;;;;;;;;;;;20.34;43.52;102195.50;5061169;28;19926;-60
2022/06/16 08:57:48;;;;;;;;;;;;;;;20.30;43.73;102200.44;5061463;28;19924;-61
2022/06/16 09:00:16;;;;;;;;;;;;;;;20.44;43.62;102209.47;5062511;28;20010;-60
2022/06/16 09:02:41;;;;;;;;;;;;;;;20.49;42.93;102208.88;5062141;28;20466;-61
2022/06/16 09:05:21;;;;;;;;;;;;;;;20.55;43.42;102213.50;5055921;28;19924;-60
2022/06/16 09:07:52;;;;;;;;;;;;;;;20.69;42.05;102220.63;5062156;28;19982;-60
2022/06/16 09:10:23;;;;;;;;;;;;;;;20.61;42.76;102211.91;5058002;28;19935;-60
2022/06/16 09:13:04;;;;;;;;;;;;;;;20.62;43.08;102216.25;5047111;28;20038;-60
2022/06/16 09:15:38;;;;;;;;;;;;;;;20.70;44.40;102213.41;5058465;28;19920;-59
2022/06/16 09:18:24;;;;;;;;;;;;;;;20.96;41.85;102220.03;5064105;28;19942;-60
2022/06/16 09:21:08;;;;;;;;;;;;;;;20.89;44.73;102219.16;5063432;28;20171;-61
2022/06/16 09:23:36;;;;;;;;;;;;;;;21.04;43.15;102211.81;5054442;28;19928;-61
2022/06/16 09:26:34;;;;;;;;;;;;;;;21.14;43.44;102221.38;5063625;28;20287;-60
2022/06/16 09:29:06;;;;;;;;;;;;;;;21.21;42.35;102223.09;5010635;28;19920;-60
2022/06/16 09:31:51;;;;;;;;;;;;;;;21.26;41.82;102217.09;5062931;28;20382;-63
2022/06/16 09:34:32;;;;;;;;;;;;;;;21.35;42.74;102217.75;5057387;28;19924;-60
2022/06/16 09:37:02;;;;;;;;;;;;;;;21.50;42.06;102215.75;5056077;28;19936;-59
2022/06/16 09:39:31;;;;;;;;;;;;;;;21.46;42.61;102219.06;5063079;28;19935;-60
2022/06/16 09:44:59;;;;;;;;;;;;;;;21.62;42.36;102226.78;5061152;28;19935;-59
2022/06/16 09:47:31;;;;;;;;;;;;;;;21.66;40.93;102223.69;5062728;28;19924;-59
2022/06/16 09:50:02;;;;;;;;;;;;;;;21.68;42.39;102224.31;5038852;28;19978;-60
2022/06/16 09:52:34;;;;;;;;;;;;;;;21.74;42.36;102223.53;5062968;28;20447;-59
2022/06/16 09:55:20;;;;;;;;;;;;;;;21.83;41.16;102225.03;5058968;28;19990;-63
2022/06/16 09:57:49;;;;;;;;;;;;;;;21.88;41.52;102222.56;5058515;28;20438;-60
2022/06/16 10:00:19;;;;;;;;;;;;;;;21.91;42.37;102218.63;5061760;28;19924;-59
2022/06/16 10:02:47;;;;;;;;;;;;;;;21.92;42.40;102222.13;5062510;28;19916;-59
2022/06/16 10:05:14;;;;;;;;;;;;;;;22.00;42.10;102230.88;5062243;28;20061;-61
2022/06/16 10:07:54;;;;;;;;;;;;;;;22.01;41.32;102226.31;5052493;28;19966;-63
2022/06/16 10:10:37;;;;;;;;;;;;;;;22.10;42.56;102222.38;5058452;28;19924;-59
2022/06/16 10:13:25;;;;;;;;;;;;;;;22.20;42.74;102218.47;5051132;28;19929;-62
2022/06/16 10:15:59;;;;;;;;;;;;;;;22.33;42.21;102218.47;5062583;28;19982;-61
2022/06/16 10:18:24;;;;;;;;;;;;;;;22.21;41.19;102215.56;5063809;28;19920;-60
2022/06/16 10:20:50;;;;;;;;;;;;;;;22.24;42.11;102216.97;5061120;28;19935;-59
2022/06/16 10:23:20;;;;;;;;;;;;;;;22.26;41.90;102217.63;5058699;28;19924;-60
2022/06/16 10:25:47;;;;;;;;;;;;;;;22.37;41.73;102230.53;5058170;28;19924;-60
2022/06/16 10:28:21;;;;;;;;;;;;;;;22.35;42.66;102229.88;5051467;28;19958;-61
2022/06/16 10:30:46;;;;;;;;;;;;;;;22.41;41.43;102236.34;5062332;28;19925;-60
2022/06/16 10:33:16;;;;;;;;;;;;;;;22.29;41.67;102239.66;5064651;28;19935;-62
2022/06/16 10:35:46;;;;;;;;;;;;;;;22.41;41.70;102239.88;5065949;28;20279;-63
2022/06/16 10:38:11;;;;;;;;;;;;;;;22.62;40.52;102238.03;5061547;28;19924;-57
2022/06/16 10:40:38;;;;;;;;;;;;;;;22.48;41.31;102236.34;5065820;28;20397;-62
2022/06/16 10:43:13;;;;;;;;;;;;;;;22.57;41.22;102237.84;5060107;28;19932;-61
2022/06/16 10:45:39;;;;;;;;;;;;;;;22.66;41.09;102233.88;5065171;28;19925;-61
2022/06/16 10:48:31;;;;;;;;;;;;;;;22.84;41.58;102240.50;5064714;28;19924;-61
2022/06/16 10:51:13;;;;;;;;;;;;;;;22.84;40.17;102240.50;5061182;28;19994;-61
2022/06/16 10:53:45;;;;;;;;;;;;;;;22.76;40.04;102233.47;5061110;28;19944;-59
2022/06/16 10:56:16;;;;;;;;;;;;;;;22.67;40.88;102232.84;5060750;28;19925;-59
2022/06/16 10:58:44;;;;;;;;;;;;;;;22.70;42.18;102239.72;5042543;28;20541;-61
2022/06/16 11:01:18;;;;;;;;;;;;;;;22.82;41.83;102226.38;5065712;28;19994;-59
2022/06/16 11:03:47;;;;;;;;;;;;;;;22.91;41.41;102227.81;5064839;28;19924;-63
2022/06/16 11:06:14;;;;;;;;;;;;;;;22.93;40.32;102228.44;5060019;28;20042;-62
2022/06/16 11:08:43;;;;;;;;;;;;;;;22.91;41.04;102233.22;5062644;28;19924;-60
2022/06/16 11:11:09;;;;;;;;;;;;;;;22.97;40.44;102232.38;5066054;28;20436;-62
2022/06/16 11:13:43;;;;;;;;;;;;;;;23.08;39.52;102230.06;5063951;28;19925;-62
2022/06/16 11:16:13;;;;;;;;;;;;;;;22.94;39.83;102224.69;5063269;28;20069;-63
2022/06/16 11:18:38;;;;;;;;;;;;;;;23.04;39.65;102226.13;5064146;28;19931;-61
2022/06/16 11:21:20;;;;;;;;;;;;;;;22.88;41.15;102219.31;5061090;28;19924;-62
2022/06/16 11:23:50;;;;;;;;;;;;;;;23.10;40.86;102217.97;5055708;28;19991;-61
2022/06/16 11:26:16;;;;;;;;;;;;;;;23.26;40.75;102221.28;5062025;28;19924;-61
2022/06/16 11:28:43;;;;;;;;;;;;;;;23.38;40.72;102213.34;5061660;28;20761;-61
2022/06/16 11:31:08;;;;;;;;;;;;;;;23.51;40.53;102217.88;5066113;28;20016;-60
2022/06/16 11:36:40;;;;;;;;;;;;;;;23.76;40.07;102209.00;5051300;28;20483;-62
2022/06/16 11:39:10;;;;;;;;;;;;;;;23.91;39.18;102211.41;5060812;28;20682;-61
2022/06/16 11:41:40;;;;;;;;;;;;;;;23.70;39.76;102205.28;5065071;28;19925;-60
2022/06/16 11:44:09;;;;;;;;;;;;;;;23.71;40.14;102211.53;5060516;28;19947;-62
2022/06/16 11:46:34;;;;;;;;;;;;;;;23.74;40.67;102205.69;5060299;28;20011;-64
2022/06/16 11:49:04;;;;;;;;;;;;;;;23.82;40.55;102212.72;5062394;28;19952;-65
2022/06/16 11:51:29;;;;;;;;;;;;;;;23.87;38.19;102215.59;5066881;28;19928;-62
2022/06/16 11:54:11;;;;;;;;;;;;;;;23.88;39.53;102217.28;5069344;28;19935;-62
2022/06/16 11:56:41;;;;;;;;;;;;;;;23.89;38.70;102213.50;5055192;28;19931;-63
2022/06/16 11:59:16;;;;;;;;;;;;;;;23.87;38.89;102221.00;5059438;28;19925;-62
2022/06/16 12:01:46;;;;;;;;;;;;;;;23.95;40.73;102226.19;5055254;28;20032;-62
2022/06/16 12:04:12;;;;;;;;;;;;;;;24.07;39.61;102220.06;5055693;28;19974;-63
2022/06/16 12:06:41;;;;;;;;;;;;;;;24.05;39.87;102225.69;5055040;28;19931;-62
2022/06/16 12:09:17;;;;;;;;;;;;;;;24.24;39.35;102226.66;5061299;28;20286;-62
2022/06/16 12:11:47;;;;;;;;;;;;;;;24.16;39.67;102218.78;5057357;28;20781;-61
2022/06/16 12:14:25;;;;;;;;;;;;;;;24.16;39.10;102224.19;5063510;28;19924;-61
2022/06/16 12:17:00;;;;;;;;;;;;;;;24.18;40.05;102219.41;5059853;28;19932;-61
2022/06/16 12:19:35;;;;;;;;;;;;;;;24.23;38.00;102224.16;5064015;28;19955;-63
2022/06/16 12:22:10;;;;;;;;;;;;;;;24.27;38.99;102237.03;5064651;28;20047;-62
2022/06/16 12:24:47;;;;;;;;;;;;;;;24.33;38.50;102239.91;5063909;28;19969;-62
2022/06/16 12:27:20;;;;;;;;;;;;;;;24.33;37.95;102239.91;5067183;28;20466;-61
2022/06/16 12:30:05;;;;;;;;;;;;;;;24.40;39.14;102243.41;5065104;28;20011;-62
2022/06/16 12:32:37;;;;;;;;;;;;;;;24.50;38.24;102248.31;5064036;28;19928;-62
2022/06/16 12:35:11;;;;;;;;;;;;;;;24.66;37.51;102252.38;5069970;28;19929;-63
2022/06/16 12:37:43;;;;;;;;;;;;;;;24.66;37.94;102265.94;5067480;28;19924;-62
2022/06/16 12:40:13;;;;;;;;;;;;;;;24.60;39.67;102272.25;5069427;28;19955;-62
2022/06/16 12:42:42;;;;;;;;;;;;;;;24.60;37.55;102272.25;5070173;28;20361;-62
2022/06/16 12:45:11;;;;;;;;;;;;;;;24.57;38.42;102263.50;5062796;28;19981;-62
2022/06/16 12:47:50;;;;;;;;;;;;;;;24.58;38.13;102256.19;5064827;28;20648;-61
2022/06/16 12:50:27;;;;;;;;;;;;;;;24.77;38.19;102257.03;5053597;28;19924;-61
2022/06/16 12:52:58;;;;;;;;;;;;;;;24.71;38.30;102247.09;5052318;28;19924;-63
2022/06/16 12:55:35;;;;;;;;;;;;;;;24.88;39.60;102257.41;5061574;28;19930;-61
2022/06/16 12:58:06;;;;;;;;;;;;;;;24.94;37.81;102251.94;5063248;28;20017;-59
2022/06/16 13:00:34;;;;;;;;;;;;;;;24.91;38.04;102251.56;5061200;28;19935;-61
2022/06/16 13:03:05;;;;;;;;;;;;;;;24.82;38.46;102251.81;5063789;28;19925;-59
2022/06/16 13:05:31;;;;;;;;;;;;;;;25.01;38.10;102243.69;5063937;28;19951;-59
2022/06/16 13:07:57;;;;;;;;;;;;;;;25.16;37.64;102250.66;5059859;28;20733;-59
2022/06/16 13:10:22;;;;;;;;;;;;;;;25.28;37.84;102257.00;5057608;28;20302;-61